sensor_id;sensor_type;location;lat;lon;timestamp;P1;durP1;ratioP1;P2;durP2;ratioP2
12267;SDS011;6196;48.398;11.736;2023-02-23T00:01:58;17.77;;;14.27;;
12267;SDS011;6196;48.398;11.736;2023-02-23T00:04:31;17.50;;;13.60;;
12267;SDS011;6196;48.398;11.736;2023-02-23T00:06:59;16.47;;;13.13;;
12267;SDS011;6196;48.398;11.736;2023-02-23T00:09:25;19.90;;;13.30;;
12267;SDS011;6196;48.398;11.736;2023-02-23T00:12:00;17.40;;;13.70;;
12267;SDS011;6196;48.398;11.736;2023-02-23T00:14:33;18.03;;;14.30;;
12267;SDS011;6196;48.398;11.736;2023-02-23T00:17:02;17.60;;;13.47;;
12267;SDS011;6196;48.398;11.736;2023-02-23T00:19:30;18.87;;;14.93;;
12267;SDS011;6196;48.398;11.736;2023-02-23T00:21:58;21.07;;;14.90;;
12267;SDS011;6196;48.398;11.736;2023-02-23T00:24:26;22.00;;;14.63;;
12267;SDS011;6196;48.398;11.736;2023-02-23T00:26:53;19.77;;;14.80;;
12267;SDS011;6196;48.398;11.736;2023-02-23T00:29:21;18.80;;;14.67;;
12267;SDS011;6196;48.398;11.736;2023-02-23T00:31:50;17.17;;;14.10;;
12267;SDS011;6196;48.398;11.736;2023-02-23T00:34:18;18.60;;;13.30;;
12267;SDS011;6196;48.398;11.736;2023-02-23T00:36:50;17.50;;;14.27;;
12267;SDS011;6196;48.398;11.736;2023-02-23T00:39:20;17.20;;;14.27;;
12267;SDS011;6196;48.398;11.736;2023-02-23T00:41:51;20.97;;;15.27;;
12267;SDS011;6196;48.398;11.736;2023-02-23T00:44:20;19.17;;;15.77;;
12267;SDS011;6196;48.398;11.736;2023-02-23T00:46:49;18.23;;;14.70;;
12267;SDS011;6196;48.398;11.736;2023-02-23T00:49:18;18.10;;;14.93;;
12267;SDS011;6196;48.398;11.736;2023-02-23T00:51:47;20.30;;;15.97;;
12267;SDS011;6196;48.398;11.736;2023-02-23T00:54:15;18.27;;;15.37;;
12267;SDS011;6196;48.398;11.736;2023-02-23T00:56:42;17.63;;;14.80;;
12267;SDS011;6196;48.398;11.736;2023-02-23T00:59:10;17.73;;;13.90;;
12267;SDS011;6196;48.398;11.736;2023-02-23T01:01:39;20.57;;;15.87;;
12267;SDS011;6196;48.398;11.736;2023-02-23T01:04:07;17.67;;;14.00;;
12267;SDS011;6196;48.398;11.736;2023-02-23T01:06:35;16.70;;;13.90;;
12267;SDS011;6196;48.398;11.736;2023-02-23T01:09:07;18.73;;;14.40;;
12267;SDS011;6196;48.398;11.736;2023-02-23T01:11:38;19.07;;;14.40;;
12267;SDS011;6196;48.398;11.736;2023-02-23T01:14:06;19.13;;;14.00;;
12267;SDS011;6196;48.398;11.736;2023-02-23T01:16:35;18.07;;;14.77;;
12267;SDS011;6196;48.398;11.736;2023-02-23T01:19:04;18.27;;;15.10;;
12267;SDS011;6196;48.398;11.736;2023-02-23T01:21:32;26.23;;;16.60;;
12267;SDS011;6196;48.398;11.736;2023-02-23T01:24:02;20.17;;;16.03;;
12267;SDS011;6196;48.398;11.736;2023-02-23T01:26:31;22.70;;;16.70;;
12267;SDS011;6196;48.398;11.736;2023-02-23T01:29:01;19.80;;;15.13;;
12267;SDS011;6196;48.398;11.736;2023-02-23T01:31:34;22.03;;;16.53;;
12267;SDS011;6196;48.398;11.736;2023-02-23T01:34:03;20.27;;;16.43;;
12267;SDS011;6196;48.398;11.736;2023-02-23T01:36:35;20.00;;;15.27;;
12267;SDS011;6196;48.398;11.736;2023-02-23T01:39:04;19.97;;;15.47;;
12267;SDS011;6196;48.398;11.736;2023-02-23T01:41:34;20.73;;;16.83;;
12267;SDS011;6196;48.398;11.736;2023-02-23T01:44:03;21.80;;;16.23;;
12267;SDS011;6196;48.398;11.736;2023-02-23T01:46:39;22.57;;;15.63;;
12267;SDS011;6196;48.398;11.736;2023-02-23T01:49:12;23.60;;;16.87;;
12267;SDS011;6196;48.398;11.736;2023-02-23T01:51:45;23.40;;;16.80;;
12267;SDS011;6196;48.398;11.736;2023-02-23T01:54:23;24.10;;;17.23;;
12267;SDS011;6196;48.398;11.736;2023-02-23T01:57:04;22.27;;;17.47;;
12267;SDS011;6196;48.398;11.736;2023-02-23T01:59:37;20.07;;;17.37;;
12267;SDS011;6196;48.398;11.736;2023-02-23T02:02:07;22.37;;;17.70;;
12267;SDS011;6196;48.398;11.736;2023-02-23T02:04:35;22.17;;;17.83;;
12267;SDS011;6196;48.398;11.736;2023-02-23T02:07:11;22.87;;;17.30;;
12267;SDS011;6196;48.398;11.736;2023-02-23T02:09:45;23.77;;;17.37;;
12267;SDS011;6196;48.398;11.736;2023-02-23T02:12:32;21.23;;;17.17;;
12267;SDS011;6196;48.398;11.736;2023-02-23T02:14:59;23.13;;;17.73;;
12267;SDS011;6196;48.398;11.736;2023-02-23T02:29:49;19.93;;;16.93;;
12267;SDS011;6196;48.398;11.736;2023-02-23T02:36:40;23.60;;;17.97;;
12267;SDS011;6196;48.398;11.736;2023-02-23T02:42:28;22.93;;;17.90;;
12267;SDS011;6196;48.398;11.736;2023-02-23T02:47:46;23.20;;;17.60;;
12267;SDS011;6196;48.398;11.736;2023-02-23T02:56:06;18.47;;;15.93;;
12267;SDS011;6196;48.398;11.736;2023-02-23T02:58:34;22.53;;;17.17;;
12267;SDS011;6196;48.398;11.736;2023-02-23T03:01:08;21.20;;;17.13;;
12267;SDS011;6196;48.398;11.736;2023-02-23T03:03:58;19.67;;;16.40;;
12267;SDS011;6196;48.398;11.736;2023-02-23T03:07:03;20.60;;;16.23;;
12267;SDS011;6196;48.398;11.736;2023-02-23T03:13:40;22.17;;;15.70;;
12267;SDS011;6196;48.398;11.736;2023-02-23T03:23:18;20.70;;;17.43;;
12267;SDS011;6196;48.398;11.736;2023-02-23T03:29:05;22.43;;;18.13;;
12267;SDS011;6196;48.398;11.736;2023-02-23T03:32:24;21.43;;;17.87;;
12267;SDS011;6196;48.398;11.736;2023-02-23T03:35:22;23.67;;;18.80;;
12267;SDS011;6196;48.398;11.736;2023-02-23T03:38:19;25.63;;;18.90;;
12267;SDS011;6196;48.398;11.736;2023-02-23T03:41:21;26.40;;;18.97;;
12267;SDS011;6196;48.398;11.736;2023-02-23T03:44:10;24.50;;;18.17;;
12267;SDS011;6196;48.398;11.736;2023-02-23T03:47:02;20.90;;;17.87;;
12267;SDS011;6196;48.398;11.736;2023-02-23T03:49:49;26.60;;;19.30;;
12267;SDS011;6196;48.398;11.736;2023-02-23T03:52:37;23.60;;;18.23;;
12267;SDS011;6196;48.398;11.736;2023-02-23T03:55:34;23.40;;;17.43;;
12267;SDS011;6196;48.398;11.736;2023-02-23T03:58:30;24.03;;;18.47;;
12267;SDS011;6196;48.398;11.736;2023-02-23T04:01:22;25.40;;;19.60;;
12267;SDS011;6196;48.398;11.736;2023-02-23T04:04:10;25.60;;;19.87;;
12267;SDS011;6196;48.398;11.736;2023-02-23T04:06:56;24.07;;;19.07;;
12267;SDS011;6196;48.398;11.736;2023-02-23T04:09:44;24.30;;;19.47;;
12267;SDS011;6196;48.398;11.736;2023-02-23T04:18:27;22.00;;;17.90;;
12267;SDS011;6196;48.398;11.736;2023-02-23T04:20:56;23.70;;;18.03;;
12267;SDS011;6196;48.398;11.736;2023-02-23T04:23:24;21.30;;;17.53;;
12267;SDS011;6196;48.398;11.736;2023-02-23T04:25:52;21.83;;;17.57;;
12267;SDS011;6196;48.398;11.736;2023-02-23T04:28:21;22.13;;;18.63;;
12267;SDS011;6196;48.398;11.736;2023-02-23T04:30:50;23.07;;;17.60;;
12267;SDS011;6196;48.398;11.736;2023-02-23T04:33:18;24.43;;;19.00;;
12267;SDS011;6196;48.398;11.736;2023-02-23T04:35:47;27.00;;;19.43;;
12267;SDS011;6196;48.398;11.736;2023-02-23T04:38:14;26.13;;;19.10;;
12267;SDS011;6196;48.398;11.736;2023-02-23T04:40:41;26.70;;;20.37;;
12267;SDS011;6196;48.398;11.736;2023-02-23T04:43:09;25.27;;;19.03;;
12267;SDS011;6196;48.398;11.736;2023-02-23T04:45:38;23.13;;;19.30;;
12267;SDS011;6196;48.398;11.736;2023-02-23T04:48:06;27.53;;;19.60;;
12267;SDS011;6196;48.398;11.736;2023-02-23T04:50:33;24.50;;;18.77;;
12267;SDS011;6196;48.398;11.736;2023-02-23T04:53:00;27.93;;;20.40;;
12267;SDS011;6196;48.398;11.736;2023-02-23T04:55:27;24.37;;;19.80;;
12267;SDS011;6196;48.398;11.736;2023-02-23T04:57:58;23.80;;;19.23;;
12267;SDS011;6196;48.398;11.736;2023-02-23T05:00:26;27.83;;;20.37;;
12267;SDS011;6196;48.398;11.736;2023-02-23T05:02:55;25.00;;;20.20;;
12267;SDS011;6196;48.398;11.736;2023-02-23T05:05:22;25.57;;;19.53;;
12267;SDS011;6196;48.398;11.736;2023-02-23T05:07:49;25.87;;;19.50;;
12267;SDS011;6196;48.398;11.736;2023-02-23T05:10:16;25.17;;;19.13;;
12267;SDS011;6196;48.398;11.736;2023-02-23T05:12:43;21.87;;;17.57;;
12267;SDS011;6196;48.398;11.736;2023-02-23T05:15:11;21.97;;;18.50;;
12267;SDS011;6196;48.398;11.736;2023-02-23T05:17:38;25.27;;;18.77;;
12267;SDS011;6196;48.398;11.736;2023-02-23T05:20:09;23.63;;;18.57;;
12267;SDS011;6196;48.398;11.736;2023-02-23T05:22:38;23.33;;;18.77;;
12267;SDS011;6196;48.398;11.736;2023-02-23T05:25:06;25.87;;;19.17;;
12267;SDS011;6196;48.398;11.736;2023-02-23T05:27:35;22.47;;;18.47;;
12267;SDS011;6196;48.398;11.736;2023-02-23T05:30:03;21.20;;;17.43;;
12267;SDS011;6196;48.398;11.736;2023-02-23T05:32:33;24.17;;;19.40;;
12267;SDS011;6196;48.398;11.736;2023-02-23T05:35:00;21.07;;;17.30;;
12267;SDS011;6196;48.398;11.736;2023-02-23T05:37:27;23.83;;;18.30;;
12267;SDS011;6196;48.398;11.736;2023-02-23T05:39:54;22.87;;;17.83;;
12267;SDS011;6196;48.398;11.736;2023-02-23T05:42:21;23.23;;;17.70;;
12267;SDS011;6196;48.398;11.736;2023-02-23T05:44:48;23.77;;;17.83;;
12267;SDS011;6196;48.398;11.736;2023-02-23T05:47:15;23.43;;;18.77;;
12267;SDS011;6196;48.398;11.736;2023-02-23T05:49:41;22.53;;;18.03;;
12267;SDS011;6196;48.398;11.736;2023-02-23T05:52:10;23.40;;;18.17;;
12267;SDS011;6196;48.398;11.736;2023-02-23T05:54:37;23.37;;;18.43;;
12267;SDS011;6196;48.398;11.736;2023-02-23T05:57:04;25.33;;;18.47;;
12267;SDS011;6196;48.398;11.736;2023-02-23T05:59:31;23.83;;;18.67;;
12267;SDS011;6196;48.398;11.736;2023-02-23T06:01:57;22.87;;;18.17;;
12267;SDS011;6196;48.398;11.736;2023-02-23T06:04:24;23.03;;;17.67;;
12267;SDS011;6196;48.398;11.736;2023-02-23T06:06:51;24.10;;;18.87;;
12267;SDS011;6196;48.398;11.736;2023-02-23T06:09:18;27.73;;;20.27;;
12267;SDS011;6196;48.398;11.736;2023-02-23T06:11:45;25.97;;;19.37;;
12267;SDS011;6196;48.398;11.736;2023-02-23T06:14:12;27.87;;;20.27;;
12267;SDS011;6196;48.398;11.736;2023-02-23T06:16:39;25.30;;;20.07;;
12267;SDS011;6196;48.398;11.736;2023-02-23T06:19:06;28.77;;;22.20;;
12267;SDS011;6196;48.398;11.736;2023-02-23T06:21:33;27.37;;;20.77;;
12267;SDS011;6196;48.398;11.736;2023-02-23T06:24:00;24.53;;;19.50;;
12267;SDS011;6196;48.398;11.736;2023-02-23T06:26:27;26.30;;;19.77;;
12267;SDS011;6196;48.398;11.736;2023-02-23T06:28:54;27.87;;;21.17;;
12267;SDS011;6196;48.398;11.736;2023-02-23T06:31:22;27.90;;;20.80;;
12267;SDS011;6196;48.398;11.736;2023-02-23T06:33:49;29.73;;;21.40;;
12267;SDS011;6196;48.398;11.736;2023-02-23T06:36:16;28.53;;;21.30;;
12267;SDS011;6196;48.398;11.736;2023-02-23T06:38:43;30.10;;;21.77;;
12267;SDS011;6196;48.398;11.736;2023-02-23T06:41:11;28.33;;;21.67;;
12267;SDS011;6196;48.398;11.736;2023-02-23T06:43:38;29.87;;;21.73;;
12267;SDS011;6196;48.398;11.736;2023-02-23T06:46:05;29.63;;;22.40;;
12267;SDS011;6196;48.398;11.736;2023-02-23T06:48:32;27.80;;;21.20;;
12267;SDS011;6196;48.398;11.736;2023-02-23T06:51:00;23.70;;;19.43;;
12267;SDS011;6196;48.398;11.736;2023-02-23T06:53:28;25.73;;;18.57;;
12267;SDS011;6196;48.398;11.736;2023-02-23T06:55:55;24.63;;;18.23;;
12267;SDS011;6196;48.398;11.736;2023-02-23T06:58:22;24.03;;;19.63;;
12267;SDS011;6196;48.398;11.736;2023-02-23T07:00:49;26.67;;;21.17;;
12267;SDS011;6196;48.398;11.736;2023-02-23T07:03:17;28.30;;;21.00;;
12267;SDS011;6196;48.398;11.736;2023-02-23T07:05:44;28.67;;;23.87;;
12267;SDS011;6196;48.398;11.736;2023-02-23T07:08:11;26.30;;;20.73;;
12267;SDS011;6196;48.398;11.736;2023-02-23T07:10:38;26.80;;;20.40;;
12267;SDS011;6196;48.398;11.736;2023-02-23T07:13:05;28.03;;;21.60;;
12267;SDS011;6196;48.398;11.736;2023-02-23T07:15:31;23.90;;;19.47;;
12267;SDS011;6196;48.398;11.736;2023-02-23T07:18:03;27.67;;;21.17;;
12267;SDS011;6196;48.398;11.736;2023-02-23T07:20:30;25.30;;;19.70;;
12267;SDS011;6196;48.398;11.736;2023-02-23T07:22:58;21.60;;;19.03;;
12267;SDS011;6196;48.398;11.736;2023-02-23T07:25:29;25.07;;;19.10;;
12267;SDS011;6196;48.398;11.736;2023-02-23T07:27:56;25.47;;;19.07;;
12267;SDS011;6196;48.398;11.736;2023-02-23T07:30:24;25.40;;;20.40;;
12267;SDS011;6196;48.398;11.736;2023-02-23T07:32:51;24.83;;;19.17;;
12267;SDS011;6196;48.398;11.736;2023-02-23T07:35:19;24.87;;;20.07;;
12267;SDS011;6196;48.398;11.736;2023-02-23T07:37:46;26.27;;;19.67;;
12267;SDS011;6196;48.398;11.736;2023-02-23T07:40:13;25.87;;;20.17;;
12267;SDS011;6196;48.398;11.736;2023-02-23T07:42:40;25.03;;;20.23;;
12267;SDS011;6196;48.398;11.736;2023-02-23T07:45:07;26.07;;;21.00;;
12267;SDS011;6196;48.398;11.736;2023-02-23T07:47:34;25.17;;;19.77;;
12267;SDS011;6196;48.398;11.736;2023-02-23T07:50:02;24.53;;;20.13;;
12267;SDS011;6196;48.398;11.736;2023-02-23T07:52:33;23.13;;;19.40;;
12267;SDS011;6196;48.398;11.736;2023-02-23T07:55:00;26.10;;;20.37;;
12267;SDS011;6196;48.398;11.736;2023-02-23T07:57:26;24.37;;;20.33;;
12267;SDS011;6196;48.398;11.736;2023-02-23T07:59:53;29.03;;;22.10;;
12267;SDS011;6196;48.398;11.736;2023-02-23T08:02:20;27.67;;;22.53;;
12267;SDS011;6196;48.398;11.736;2023-02-23T08:04:47;26.63;;;21.00;;
12267;SDS011;6196;48.398;11.736;2023-02-23T08:07:14;27.07;;;20.83;;
12267;SDS011;6196;48.398;11.736;2023-02-23T08:09:41;28.93;;;20.57;;
12267;SDS011;6196;48.398;11.736;2023-02-23T08:12:08;24.27;;;20.93;;
12267;SDS011;6196;48.398;11.736;2023-02-23T08:14:35;28.00;;;21.27;;
12267;SDS011;6196;48.398;11.736;2023-02-23T08:17:02;26.53;;;21.43;;
12267;SDS011;6196;48.398;11.736;2023-02-23T08:19:29;24.97;;;20.03;;
12267;SDS011;6196;48.398;11.736;2023-02-23T08:21:56;28.10;;;20.23;;
12267;SDS011;6196;48.398;11.736;2023-02-23T08:24:23;25.33;;;20.70;;
12267;SDS011;6196;48.398;11.736;2023-02-23T08:26:51;27.07;;;19.93;;
12267;SDS011;6196;48.398;11.736;2023-02-23T08:29:18;24.30;;;19.83;;
12267;SDS011;6196;48.398;11.736;2023-02-23T08:31:46;26.87;;;20.87;;
12267;SDS011;6196;48.398;11.736;2023-02-23T08:34:13;27.03;;;20.63;;
12267;SDS011;6196;48.398;11.736;2023-02-23T08:36:40;27.70;;;21.20;;
12267;SDS011;6196;48.398;11.736;2023-02-23T08:39:11;29.40;;;21.60;;
12267;SDS011;6196;48.398;11.736;2023-02-23T08:41:39;24.07;;;19.63;;
12267;SDS011;6196;48.398;11.736;2023-02-23T08:44:06;26.40;;;20.47;;
12267;SDS011;6196;48.398;11.736;2023-02-23T08:46:33;28.33;;;21.50;;
12267;SDS011;6196;48.398;11.736;2023-02-23T08:49:00;24.03;;;20.27;;
12267;SDS011;6196;48.398;11.736;2023-02-23T08:51:28;25.97;;;19.73;;
12267;SDS011;6196;48.398;11.736;2023-02-23T08:53:54;24.73;;;20.60;;
12267;SDS011;6196;48.398;11.736;2023-02-23T08:56:22;26.27;;;20.43;;
12267;SDS011;6196;48.398;11.736;2023-02-23T08:58:50;23.57;;;19.90;;
12267;SDS011;6196;48.398;11.736;2023-02-23T09:01:18;24.30;;;20.33;;
12267;SDS011;6196;48.398;11.736;2023-02-23T09:03:47;24.93;;;20.67;;
12267;SDS011;6196;48.398;11.736;2023-02-23T09:06:16;25.50;;;20.70;;
12267;SDS011;6196;48.398;11.736;2023-02-23T09:08:45;23.17;;;19.37;;
12267;SDS011;6196;48.398;11.736;2023-02-23T09:11:12;23.13;;;19.33;;
12267;SDS011;6196;48.398;11.736;2023-02-23T09:13:39;21.07;;;18.23;;
12267;SDS011;6196;48.398;11.736;2023-02-23T09:16:06;24.93;;;18.87;;
12267;SDS011;6196;48.398;11.736;2023-02-23T09:18:34;22.47;;;18.83;;
12267;SDS011;6196;48.398;11.736;2023-02-23T09:21:02;21.63;;;18.20;;
12267;SDS011;6196;48.398;11.736;2023-02-23T09:23:32;21.93;;;19.27;;
12267;SDS011;6196;48.398;11.736;2023-02-23T09:26:04;24.40;;;18.53;;
12267;SDS011;6196;48.398;11.736;2023-02-23T09:28:33;24.70;;;17.57;;
12267;SDS011;6196;48.398;11.736;2023-02-23T09:31:04;20.87;;;17.70;;
12267;SDS011;6196;48.398;11.736;2023-02-23T09:33:40;19.80;;;17.60;;
12267;SDS011;6196;48.398;11.736;2023-02-23T09:36:09;22.47;;;19.23;;
12267;SDS011;6196;48.398;11.736;2023-02-23T09:38:47;21.47;;;18.27;;
12267;SDS011;6196;48.398;11.736;2023-02-23T09:44:26;19.20;;;17.10;;
12267;SDS011;6196;48.398;11.736;2023-02-23T09:50:22;20.90;;;16.20;;
12267;SDS011;6196;48.398;11.736;2023-02-23T09:52:58;21.43;;;16.57;;
12267;SDS011;6196;48.398;11.736;2023-02-23T09:55:30;20.07;;;16.23;;
12267;SDS011;6196;48.398;11.736;2023-02-23T09:58:01;19.50;;;16.97;;
12267;SDS011;6196;48.398;11.736;2023-02-23T10:00:36;19.27;;;15.80;;
12267;SDS011;6196;48.398;11.736;2023-02-23T10:05:47;21.10;;;17.10;;
12267;SDS011;6196;48.398;11.736;2023-02-23T10:17:10;21.43;;;16.80;;
12267;SDS011;6196;48.398;11.736;2023-02-23T10:22:52;22.43;;;17.60;;
12267;SDS011;6196;48.398;11.736;2023-02-23T10:25:24;19.20;;;16.67;;
12267;SDS011;6196;48.398;11.736;2023-02-23T10:27:53;20.43;;;16.83;;
12267;SDS011;6196;48.398;11.736;2023-02-23T10:30:24;24.63;;;16.63;;
12267;SDS011;6196;48.398;11.736;2023-02-23T10:33:04;18.40;;;16.27;;
12267;SDS011;6196;48.398;11.736;2023-02-23T10:35:42;18.80;;;16.47;;
12267;SDS011;6196;48.398;11.736;2023-02-23T10:38:16;20.20;;;16.93;;
12267;SDS011;6196;48.398;11.736;2023-02-23T10:40:45;25.97;;;17.80;;
12267;SDS011;6196;48.398;11.736;2023-02-23T10:43:16;21.60;;;16.63;;
12267;SDS011;6196;48.398;11.736;2023-02-23T10:45:47;19.07;;;16.47;;
12267;SDS011;6196;48.398;11.736;2023-02-23T10:48:23;20.13;;;16.67;;
12267;SDS011;6196;48.398;11.736;2023-02-23T10:50:55;19.33;;;15.93;;
12267;SDS011;6196;48.398;11.736;2023-02-23T10:53:34;21.23;;;15.50;;
12267;SDS011;6196;48.398;11.736;2023-02-23T10:58:47;19.37;;;15.27;;
12267;SDS011;6196;48.398;11.736;2023-02-23T11:01:33;20.50;;;16.67;;
12267;SDS011;6196;48.398;11.736;2023-02-23T11:04:28;18.13;;;14.93;;
12267;SDS011;6196;48.398;11.736;2023-02-23T11:10:22;17.83;;;15.10;;
12267;SDS011;6196;48.398;11.736;2023-02-23T11:12:52;16.23;;;13.90;;
12267;SDS011;6196;48.398;11.736;2023-02-23T11:15:29;16.27;;;14.00;;
12267;SDS011;6196;48.398;11.736;2023-02-23T11:18:20;15.47;;;13.17;;
12267;SDS011;6196;48.398;11.736;2023-02-23T11:20:48;17.93;;;13.67;;
12267;SDS011;6196;48.398;11.736;2023-02-23T11:23:19;16.47;;;13.87;;
12267;SDS011;6196;48.398;11.736;2023-02-23T11:25:55;15.37;;;12.97;;
12267;SDS011;6196;48.398;11.736;2023-02-23T11:28:35;16.37;;;13.33;;
12267;SDS011;6196;48.398;11.736;2023-02-23T11:31:19;17.03;;;13.97;;
12267;SDS011;6196;48.398;11.736;2023-02-23T11:33:53;17.67;;;13.77;;
12267;SDS011;6196;48.398;11.736;2023-02-23T11:42:11;14.50;;;12.90;;
12267;SDS011;6196;48.398;11.736;2023-02-23T11:44:43;14.03;;;11.87;;
12267;SDS011;6196;48.398;11.736;2023-02-23T11:47:33;11.60;;;10.40;;
12267;SDS011;6196;48.398;11.736;2023-02-23T11:50:05;13.07;;;11.03;;
12267;SDS011;6196;48.398;11.736;2023-02-23T11:52:33;11.93;;;10.10;;
12267;SDS011;6196;48.398;11.736;2023-02-23T11:55:03;13.60;;;9.90;;
12267;SDS011;6196;48.398;11.736;2023-02-23T11:57:33;11.97;;;10.77;;
12267;SDS011;6196;48.398;11.736;2023-02-23T12:00:07;12.73;;;10.50;;
12267;SDS011;6196;48.398;11.736;2023-02-23T12:02:51;10.50;;;9.40;;
12267;SDS011;6196;48.398;11.736;2023-02-23T12:05:29;12.07;;;10.03;;
12267;SDS011;6196;48.398;11.736;2023-02-23T12:08:04;13.03;;;10.03;;
12267;SDS011;6196;48.398;11.736;2023-02-23T12:10:43;12.17;;;9.53;;
12267;SDS011;6196;48.398;11.736;2023-02-23T12:13:28;13.40;;;9.87;;
12267;SDS011;6196;48.398;11.736;2023-02-23T12:16:15;10.87;;;9.73;;
12267;SDS011;6196;48.398;11.736;2023-02-23T12:27:33;9.43;;;8.43;;
12267;SDS011;6196;48.398;11.736;2023-02-23T12:30:17;11.23;;;9.40;;
12267;SDS011;6196;48.398;11.736;2023-02-23T12:32:55;10.07;;;9.07;;
12267;SDS011;6196;48.398;11.736;2023-02-23T12:47:03;9.70;;;8.70;;
12267;SDS011;6196;48.398;11.736;2023-02-23T12:49:51;10.47;;;7.97;;
12267;SDS011;6196;48.398;11.736;2023-02-23T12:52:33;10.43;;;9.03;;
12267;SDS011;6196;48.398;11.736;2023-02-23T12:55:10;9.73;;;8.70;;
12267;SDS011;6196;48.398;11.736;2023-02-23T13:06:17;8.50;;;7.63;;
12267;SDS011;6196;48.398;11.736;2023-02-23T13:09:04;8.93;;;7.93;;
12267;SDS011;6196;48.398;11.736;2023-02-23T13:11:55;9.53;;;8.40;;
12267;SDS011;6196;48.398;11.736;2023-02-23T13:14:48;8.20;;;7.40;;
12267;SDS011;6196;48.398;11.736;2023-02-23T13:20:10;7.60;;;6.83;;
12267;SDS011;6196;48.398;11.736;2023-02-23T13:25:56;6.57;;;5.83;;
12267;SDS011;6196;48.398;11.736;2023-02-23T13:28:41;6.53;;;5.83;;
12267;SDS011;6196;48.398;11.736;2023-02-23T13:31:34;5.93;;;5.33;;
12267;SDS011;6196;48.398;11.736;2023-02-23T13:34:07;7.93;;;5.87;;
12267;SDS011;6196;48.398;11.736;2023-02-23T13:36:57;6.40;;;5.30;;
12267;SDS011;6196;48.398;11.736;2023-02-23T13:39:30;6.47;;;5.40;;
12267;SDS011;6196;48.398;11.736;2023-02-23T13:42:32;9.00;;;5.80;;
12267;SDS011;6196;48.398;11.736;2023-02-23T13:51:30;7.50;;;6.20;;
12267;SDS011;6196;48.398;11.736;2023-02-23T13:56:50;8.03;;;6.83;;
12267;SDS011;6196;48.398;11.736;2023-02-23T13:59:21;7.47;;;6.50;;
12267;SDS011;6196;48.398;11.736;2023-02-23T14:01:55;8.57;;;6.43;;
12267;SDS011;6196;48.398;11.736;2023-02-23T14:04:36;9.27;;;7.10;;
12267;SDS011;6196;48.398;11.736;2023-02-23T14:09:35;7.80;;;7.00;;
12267;SDS011;6196;48.398;11.736;2023-02-23T14:12:22;9.87;;;8.37;;
12267;SDS011;6196;48.398;11.736;2023-02-23T14:18:01;8.63;;;7.80;;
12267;SDS011;6196;48.398;11.736;2023-02-23T14:20:54;8.97;;;7.87;;
12267;SDS011;6196;48.398;11.736;2023-02-23T14:34:49;7.73;;;7.00;;
12267;SDS011;6196;48.398;11.736;2023-02-23T14:37:17;6.73;;;6.07;;
12267;SDS011;6196;48.398;11.736;2023-02-23T14:40:14;6.83;;;5.47;;
12267;SDS011;6196;48.398;11.736;2023-02-23T14:42:49;6.30;;;5.27;;
12267;SDS011;6196;48.398;11.736;2023-02-23T14:45:21;6.53;;;5.60;;
12267;SDS011;6196;48.398;11.736;2023-02-23T14:47:57;6.63;;;6.00;;
12267;SDS011;6196;48.398;11.736;2023-02-23T14:50:34;7.43;;;6.73;;
12267;SDS011;6196;48.398;11.736;2023-02-23T14:53:05;6.37;;;5.77;;
12267;SDS011;6196;48.398;11.736;2023-02-23T14:55:41;6.07;;;5.10;;
12267;SDS011;6196;48.398;11.736;2023-02-23T14:58:24;6.43;;;5.70;;
12267;SDS011;6196;48.398;11.736;2023-02-23T15:00:56;6.63;;;5.63;;
12267;SDS011;6196;48.398;11.736;2023-02-23T15:03:23;5.77;;;5.17;;
12267;SDS011;6196;48.398;11.736;2023-02-23T15:05:54;8.20;;;5.63;;
12267;SDS011;6196;48.398;11.736;2023-02-23T15:08:25;6.70;;;5.73;;
12267;SDS011;6196;48.398;11.736;2023-02-23T15:13:32;6.60;;;6.00;;
12267;SDS011;6196;48.398;11.736;2023-02-23T15:16:05;6.73;;;5.80;;
12267;SDS011;6196;48.398;11.736;2023-02-23T15:18:39;7.07;;;6.37;;
12267;SDS011;6196;48.398;11.736;2023-02-23T15:21:12;6.93;;;5.70;;
12267;SDS011;6196;48.398;11.736;2023-02-23T15:23:47;6.77;;;5.97;;
12267;SDS011;6196;48.398;11.736;2023-02-23T15:26:23;6.40;;;5.73;;
12267;SDS011;6196;48.398;11.736;2023-02-23T15:31:36;6.87;;;6.17;;
12267;SDS011;6196;48.398;11.736;2023-02-23T15:34:08;6.37;;;5.50;;
12267;SDS011;6196;48.398;11.736;2023-02-23T15:36:36;7.83;;;5.70;;
12267;SDS011;6196;48.398;11.736;2023-02-23T15:39:06;6.70;;;5.70;;
12267;SDS011;6196;48.398;11.736;2023-02-23T15:41:41;6.07;;;5.43;;
12267;SDS011;6196;48.398;11.736;2023-02-23T15:44:15;6.60;;;5.80;;
12267;SDS011;6196;48.398;11.736;2023-02-23T15:46:56;6.23;;;5.63;;
12267;SDS011;6196;48.398;11.736;2023-02-23T15:49:30;6.30;;;5.57;;
12267;SDS011;6196;48.398;11.736;2023-02-23T15:52:01;7.83;;;5.80;;
12267;SDS011;6196;48.398;11.736;2023-02-23T15:54:37;6.43;;;5.77;;
12267;SDS011;6196;48.398;11.736;2023-02-23T15:57:29;7.30;;;6.60;;
12267;SDS011;6196;48.398;11.736;2023-02-23T15:59:59;6.87;;;6.17;;
12267;SDS011;6196;48.398;11.736;2023-02-23T16:02:36;6.90;;;5.73;;
12267;SDS011;6196;48.398;11.736;2023-02-23T16:05:24;7.20;;;6.13;;
12267;SDS011;6196;48.398;11.736;2023-02-23T16:10:42;6.60;;;5.70;;
12267;SDS011;6196;48.398;11.736;2023-02-23T16:13:12;6.90;;;6.17;;
12267;SDS011;6196;48.398;11.736;2023-02-23T16:15:45;5.97;;;5.37;;
12267;SDS011;6196;48.398;11.736;2023-02-23T16:18:15;8.53;;;6.13;;
12267;SDS011;6196;48.398;11.736;2023-02-23T16:20:46;9.53;;;6.33;;
12267;SDS011;6196;48.398;11.736;2023-02-23T16:23:23;7.80;;;6.30;;
12267;SDS011;6196;48.398;11.736;2023-02-23T16:29:18;6.97;;;5.77;;
12267;SDS011;6196;48.398;11.736;2023-02-23T16:32:00;9.20;;;6.10;;
12267;SDS011;6196;48.398;11.736;2023-02-23T16:34:33;7.77;;;5.87;;
12267;SDS011;6196;48.398;11.736;2023-02-23T16:37:15;6.40;;;5.57;;
12267;SDS011;6196;48.398;11.736;2023-02-23T16:39:45;7.70;;;6.10;;
12267;SDS011;6196;48.398;11.736;2023-02-23T16:44:48;8.13;;;5.80;;
12267;SDS011;6196;48.398;11.736;2023-02-23T16:47:26;6.60;;;5.60;;
12267;SDS011;6196;48.398;11.736;2023-02-23T16:50:18;9.50;;;6.53;;
12267;SDS011;6196;48.398;11.736;2023-02-23T16:52:50;7.80;;;6.67;;
12267;SDS011;6196;48.398;11.736;2023-02-23T16:55:19;7.83;;;6.90;;
12267;SDS011;6196;48.398;11.736;2023-02-23T16:57:55;7.73;;;6.20;;
12267;SDS011;6196;48.398;11.736;2023-02-23T17:00:27;7.73;;;6.50;;
12267;SDS011;6196;48.398;11.736;2023-02-23T17:02:56;9.70;;;7.10;;
12267;SDS011;6196;48.398;11.736;2023-02-23T17:05:26;9.53;;;7.40;;
12267;SDS011;6196;48.398;11.736;2023-02-23T17:07:55;10.17;;;7.97;;
12267;SDS011;6196;48.398;11.736;2023-02-23T17:10:29;8.50;;;7.00;;
12267;SDS011;6196;48.398;11.736;2023-02-23T17:13:01;9.83;;;6.83;;
12267;SDS011;6196;48.398;11.736;2023-02-23T17:15:33;7.23;;;6.53;;
12267;SDS011;6196;48.398;11.736;2023-02-23T17:18:04;8.03;;;7.10;;
12267;SDS011;6196;48.398;11.736;2023-02-23T17:20:32;8.37;;;7.47;;
12267;SDS011;6196;48.398;11.736;2023-02-23T17:22:59;8.70;;;7.30;;
12267;SDS011;6196;48.398;11.736;2023-02-23T17:25:30;8.50;;;7.60;;
12267;SDS011;6196;48.398;11.736;2023-02-23T17:27:58;8.30;;;7.03;;
12267;SDS011;6196;48.398;11.736;2023-02-23T17:30:26;9.70;;;6.63;;
12267;SDS011;6196;48.398;11.736;2023-02-23T17:32:56;7.80;;;6.80;;
12267;SDS011;6196;48.398;11.736;2023-02-23T17:35:24;8.63;;;7.10;;
12267;SDS011;6196;48.398;11.736;2023-02-23T17:37:52;7.53;;;6.13;;